Time;durP1;ratioP1;P1;durP2;ratioP2;P2;SDS_P1;SDS_P2;PMS_P1;PMS_P2;Temp;Humidity;BMP_temperature;BMP_pressure;BME280_temperature;BME280_humidity;BME280_pressure;Samples;Min_cycle;Max_cycle;Signal;HPM_P1;HPM_P2
2022/08/23 00:01:29;;;;;;;13.32;9.25;;;18.20;83.60;;;;;;5010991;28;20081;-75
2022/08/23 00:03:57;;;;;;;13.45;8.77;;;18.10;83.70;;;;;;5010748;28;20037;-76
2022/08/23 00:06:23;;;;;;;10.50;8.27;;;18.10;83.70;;;;;;5010692;28;20108;-76
2022/08/23 00:08:50;;;;;;;10.10;8.25;;;18.10;83.90;;;;;;5010636;28;20081;-76
2022/08/23 00:11:25;;;;;;;10.50;7.70;;;18.00;83.90;;;;;;5010573;28;20048;-76
2022/08/23 00:13:51;;;;;;;9.93;8.80;;;18.00;84.00;;;;;;5010874;28;20390;-75
2022/08/23 00:16:16;;;;;;;13.00;8.52;;;18.00;83.80;;;;;;5010593;28;20045;-76
2022/08/23 00:18:43;;;;;;;12.10;7.93;;;18.00;83.90;;;;;;4978287;28;20042;-76
2022/08/23 00:21:09;;;;;;;12.10;8.60;;;18.00;84.00;;;;;;5010384;28;20049;-75
2022/08/23 00:23:36;;;;;;;12.23;8.52;;;18.00;84.00;;;;;;5010426;28;20261;-75
2022/08/23 00:26:01;;;;;;;13.40;9.10;;;18.00;84.10;;;;;;5010652;28;20042;-76
2022/08/23 00:28:28;;;;;;;10.55;8.48;;;18.00;84.10;;;;;;4994146;28;20049;-76
2022/08/23 00:30:54;;;;;;;11.15;8.93;;;18.00;84.20;;;;;;5010136;28;20054;-76
2022/08/23 00:33:20;;;;;;;12.63;9.35;;;18.00;84.20;;;;;;5010266;28;20125;-76
2022/08/23 00:35:46;;;;;;;12.77;8.65;;;18.00;84.20;;;;;;4993856;28;20046;-76
2022/08/23 00:38:12;;;;;;;13.02;9.05;;;18.00;84.30;;;;;;4993871;28;20040;-76
2022/08/23 00:40:37;;;;;;;13.50;8.82;;;18.00;84.30;;;;;;5010168;28;20042;-76
2022/08/23 00:49:10;;;;;;;10.95;8.52;;;18.00;84.50;;;;;;5050377;28;20045;-75
2022/08/23 00:52:07;;;;;;;16.83;9.40;;;18.00;84.40;;;;;;5010064;28;20045;-76
2022/08/23 00:54:35;;;;;;;12.82;9.13;;;18.00;84.90;;;;;;5026938;28;20050;-76
2022/08/23 00:57:04;;;;;;;14.05;9.57;;;17.90;84.30;;;;;;5010154;28;20122;-76
2022/08/23 00:59:31;;;;;;;13.45;9.65;;;17.90;84.50;;;;;;5010136;28;20046;-76
2022/08/23 01:01:58;;;;;;;12.50;9.32;;;17.90;84.70;;;;;;5009763;28;20052;-75
2022/08/23 01:04:29;;;;;;;11.77;9.63;;;17.90;84.60;;;;;;5010071;28;20063;-75
2022/08/23 01:07:02;;;;;;;13.07;9.00;;;17.90;84.70;;;;;;5009708;28;20087;-75
2022/08/23 01:09:28;;;;;;;12.13;9.13;;;17.90;84.70;;;;;;5010000;28;20050;-75
2022/08/23 01:12:26;;;;;;;10.82;9.52;;;17.80;84.80;;;;;;5009717;28;20509;-75
2022/08/23 01:15:07;;;;;;;13.60;9.63;;;17.80;84.70;;;;;;5009695;28;20042;-75
2022/08/23 01:17:40;;;;;;;11.65;10.25;;;17.80;84.80;;;;;;5009571;28;20042;-76
2022/08/23 01:20:13;;;;;;;15.95;10.68;;;17.70;84.70;;;;;;5009567;28;20562;-75
2022/08/23 01:22:59;;;;;;;13.68;11.00;;;17.60;84.60;;;;;;5009850;28;20037;-75
2022/08/23 01:25:29;;;;;;;14.05;10.82;;;17.60;85.00;;;;;;5009594;28;20037;-76
2022/08/23 01:27:56;;;;;;;15.30;12.05;;;17.50;84.80;;;;;;5009709;28;20178;-75
2022/08/23 01:30:24;;;;;;;12.00;10.80;;;17.50;84.90;;;;;;5009309;28;20409;-76
2022/08/23 01:32:54;;;;;;;14.88;11.65;;;17.50;85.10;;;;;;4993029;28;20107;-76
2022/08/23 01:35:29;;;;;;;13.93;10.18;;;17.50;85.10;;;;;;5009573;28;20402;-75
2022/08/23 01:37:56;;;;;;;12.80;11.38;;;17.50;85.30;;;;;;5009614;28;20065;-75
2022/08/23 01:40:21;;;;;;;16.70;11.20;;;17.50;85.30;;;;;;5009235;28;20074;-77
2022/08/23 01:42:48;;;;;;;15.02;11.48;;;17.50;85.40;;;;;;5042328;28;20446;-76
2022/08/23 01:45:15;;;;;;;13.82;10.20;;;17.50;85.40;;;;;;4992932;28;20046;-75
2022/08/23 01:47:41;;;;;;;11.55;9.82;;;17.50;85.40;;;;;;5009230;28;20050;-75
2022/08/23 01:50:10;;;;;;;11.48;10.23;;;17.40;85.40;;;;;;4992863;28;20124;-77
2022/08/23 01:52:36;;;;;;;13.32;10.82;;;17.50;85.40;;;;;;5009126;28;20046;-75
2022/08/23 01:55:03;;;;;;;14.20;10.07;;;17.50;85.40;;;;;;5009572;28;20034;-76
2022/08/23 01:57:29;;;;;;;18.60;12.65;;;17.50;85.40;;;;;;5009112;28;20040;-75
2022/08/23 01:59:56;;;;;;;14.50;10.65;;;17.50;85.50;;;;;;5009041;28;20090;-76
2022/08/23 02:02:22;;;;;;;17.80;11.07;;;17.50;85.50;;;;;;4992783;28;20042;-75
2022/08/23 02:04:48;;;;;;;18.83;12.48;;;17.40;85.50;;;;;;5009237;28;20042;-74
2022/08/23 02:07:14;;;;;;;17.15;11.65;;;17.40;85.60;;;;;;5041899;28;20505;-76
2022/08/23 02:09:40;;;;;;;15.00;11.18;;;17.40;85.50;;;;;;5009155;28;20046;-76
2022/08/23 02:12:06;;;;;;;13.55;11.90;;;17.50;85.60;;;;;;5008778;28;20049;-75
2022/08/23 02:14:31;;;;;;;14.48;11.55;;;17.40;85.70;;;;;;5008848;28;20485;-74
2022/08/23 02:16:58;;;;;;;15.05;11.52;;;17.40;85.70;;;;;;5027453;28;20053;-77
2022/08/23 02:19:24;;;;;;;20.08;12.48;;;17.40;85.70;;;;;;5029118;28;20452;-76
2022/08/23 02:21:50;;;;;;;12.43;10.82;;;17.40;85.70;;;;;;5045496;28;20050;-76
2022/08/23 02:24:22;;;;;;;14.23;11.30;;;17.30;85.70;;;;;;5012242;28;20045;-76
2022/08/23 02:26:52;;;;;;;16.63;12.98;;;17.30;85.70;;;;;;5012224;28;20088;-75
2022/08/23 02:29:21;;;;;;;13.88;11.27;;;17.30;85.70;;;;;;5011963;28;20050;-75
2022/08/23 02:31:47;;;;;;;15.73;13.07;;;17.30;86.50;;;;;;5012068;28;20085;-76
2022/08/23 02:34:14;;;;;;;17.77;12.27;;;17.30;86.80;;;;;;5028514;28;20048;-75
2022/08/23 02:36:41;;;;;;;13.88;11.98;;;17.30;86.60;;;;;;5012252;28;20049;-76
2022/08/23 02:39:07;;;;;;;14.93;11.68;;;17.40;86.80;;;;;;5012106;28;20041;-76
2022/08/23 02:41:34;;;;;;;14.65;11.27;;;17.40;86.80;;;;;;5011900;28;20569;-75
2022/08/23 02:44:00;;;;;;;14.77;12.15;;;17.40;86.80;;;;;;4995693;28;20054;-75
2022/08/23 02:46:26;;;;;;;16.33;11.63;;;17.40;86.70;;;;;;4995872;28;20057;-77
2022/08/23 02:48:52;;;;;;;12.88;11.57;;;17.40;86.70;;;;;;5011923;28;20094;-75
2022/08/23 02:51:18;;;;;;;12.50;11.18;;;17.40;86.70;;;;;;5011732;28;20041;-76
2022/08/23 02:53:44;;;;;;;15.90;11.65;;;17.40;86.70;;;;;;4995554;28;20106;-74
2022/08/23 02:56:11;;;;;;;18.98;11.30;;;17.40;86.70;;;;;;5011774;28;20042;-75
2022/08/23 02:58:37;;;;;;;16.25;11.32;;;17.40;86.80;;;;;;5011726;28;20487;-75
2022/08/23 03:01:03;;;;;;;15.50;11.00;;;17.40;86.90;;;;;;5011744;28;20046;-76
2022/08/23 03:03:29;;;;;;;24.65;12.13;;;17.40;86.90;;;;;;5011709;28;20048;-76
2022/08/23 03:05:55;;;;;;;18.40;12.02;;;17.40;86.70;;;;;;5028315;28;20241;-76
2022/08/23 03:08:22;;;;;;;15.90;11.25;;;17.30;86.90;;;;;;5011580;28;20038;-76
2022/08/23 03:10:51;;;;;;;12.15;10.80;;;17.30;86.90;;;;;;5011519;28;20053;-75
2022/08/23 03:13:17;;;;;;;16.92;11.18;;;17.30;86.80;;;;;;5011497;28;20114;-75
2022/08/23 03:15:44;;;;;;;13.63;11.75;;;17.20;86.80;;;;;;5011742;28;20159;-76
2022/08/23 03:18:11;;;;;;;15.73;10.65;;;17.20;86.70;;;;;;5011691;28;20077;-75
2022/08/23 03:20:40;;;;;;;17.63;10.70;;;17.20;86.80;;;;;;5011320;28;20038;-76
2022/08/23 03:23:08;;;;;;;14.45;11.05;;;17.20;86.80;;;;;;5011444;28;20088;-75
2022/08/23 03:25:33;;;;;;;16.50;10.63;;;17.20;86.80;;;;;;4995038;28;20042;-76
2022/08/23 03:28:03;;;;;;;12.32;10.27;;;17.20;86.70;;;;;;5010080;28;20455;-75
2022/08/23 03:30:29;;;;;;;12.02;10.82;;;17.10;86.60;;;;;;5010980;28;20060;-75
2022/08/23 03:32:55;;;;;;;14.02;10.00;;;17.00;86.50;;;;;;4994993;28;20125;-75
2022/08/23 03:35:20;;;;;;;14.30;9.75;;;17.00;86.50;;;;;;5044178;28;20541;-76
2022/08/23 03:37:46;;;;;;;14.70;10.43;;;17.00;86.60;;;;;;5011248;28;20086;-75
2022/08/23 03:40:12;;;;;;;12.43;10.10;;;16.90;86.60;;;;;;5044270;28;20038;-75
2022/08/23 03:42:38;;;;;;;12.80;10.65;;;16.90;86.60;;;;;;5011045;28;20077;-76
2022/08/23 03:45:04;;;;;;;11.73;9.95;;;16.90;86.60;;;;;;5027718;28;20096;-75
2022/08/23 03:47:30;;;;;;;15.68;10.55;;;16.80;86.70;;;;;;5011000;28;20042;-74
2022/08/23 03:49:56;;;;;;;11.55;10.10;;;16.80;86.80;;;;;;5027419;28;20060;-75
2022/08/23 03:52:22;;;;;;;12.82;10.88;;;16.80;86.70;;;;;;4994489;28;20042;-74
2022/08/23 03:54:48;;;;;;;13.05;10.60;;;16.80;86.80;;;;;;5010911;28;20050;-74
2022/08/23 03:57:13;;;;;;;12.05;10.70;;;16.70;86.80;;;;;;5027299;28;20038;-76
2022/08/23 03:59:40;;;;;;;12.57;11.27;;;16.70;86.80;;;;;;4994557;28;20038;-76
2022/08/23 04:02:06;;;;;;;12.73;11.13;;;16.70;86.90;;;;;;5010928;28;20117;-76
2022/08/23 04:04:32;;;;;;;12.30;10.05;;;16.70;87.00;;;;;;4994808;28;20046;-75
2022/08/23 04:06:58;;;;;;;14.07;11.13;;;16.70;86.90;;;;;;5010952;28;20496;-74
2022/08/23 04:09:23;;;;;;;14.98;11.10;;;16.70;86.90;;;;;;4994632;28;20375;-76
2022/08/23 04:11:50;;;;;;;11.00;9.38;;;16.70;87.00;;;;;;5043483;28;20048;-75
2022/08/23 04:14:17;;;;;;;12.80;10.90;;;16.70;87.00;;;;;;5010566;28;20038;-75
2022/08/23 04:16:43;;;;;;;12.75;10.32;;;16.70;87.00;;;;;;4994285;28;20049;-75
2022/08/23 04:19:13;;;;;;;9.52;8.52;;;16.60;87.00;;;;;;5010824;28;20054;-76
2022/08/23 04:21:44;;;;;;;11.25;8.48;;;16.60;87.00;;;;;;4994076;28;20042;-75
2022/08/23 04:24:10;;;;;;;10.02;8.63;;;16.60;87.00;;;;;;5010301;28;20034;-76
2022/08/23 04:26:36;;;;;;;10.57;8.30;;;16.60;87.00;;;;;;5010117;28;20048;-76
2022/08/23 04:29:02;;;;;;;10.60;9.48;;;16.60;87.10;;;;;;5009965;28;20037;-75
2022/08/23 04:31:28;;;;;;;11.52;9.50;;;16.50;87.10;;;;;;5042673;28;20061;-76
2022/08/23 04:33:55;;;;;;;17.02;10.57;;;16.50;87.00;;;;;;4993768;28;20050;-76
2022/08/23 04:36:21;;;;;;;10.80;8.10;;;16.50;87.10;;;;;;5026704;28;20117;-75
2022/08/23 04:38:47;;;;;;;12.45;10.07;;;16.50;87.10;;;;;;5010006;28;20307;-75
2022/08/23 04:43:58;;;;;;;14.93;10.90;;;16.50;87.10;;;;;;5010228;28;20136;-75
2022/08/23 04:46:24;;;;;;;16.00;11.20;;;16.50;87.10;;;;;;5026787;28;20124;-76
2022/08/23 04:48:49;;;;;;;11.18;10.02;;;16.50;87.20;;;;;;5043108;28;20094;-76
2022/08/23 04:51:16;;;;;;;14.20;10.38;;;16.50;87.20;;;;;;5042976;28;20069;-76
2022/08/23 04:53:42;;;;;;;10.95;9.77;;;16.50;87.30;;;;;;5009962;28;20038;-75
2022/08/23 04:56:08;;;;;;;13.43;12.02;;;16.50;87.30;;;;;;5010253;28;20490;-75
2022/08/23 04:58:37;;;;;;;13.50;11.40;;;16.50;87.40;;;;;;5010182;28;20045;-76
2022/08/23 05:01:06;;;;;;;11.18;9.95;;;16.50;87.50;;;;;;5009831;28;20095;-75
2022/08/23 05:03:32;;;;;;;14.07;10.77;;;16.60;87.50;;;;;;5009896;28;20116;-75
2022/08/23 05:06:00;;;;;;;13.68;10.68;;;16.60;87.50;;;;;;5009856;28;20124;-75
2022/08/23 05:08:26;;;;;;;12.00;10.80;;;16.60;87.60;;;;;;5009754;28;20065;-76
2022/08/23 05:10:52;;;;;;;13.70;10.95;;;16.60;87.80;;;;;;5009604;28;20087;-75
2022/08/23 05:13:18;;;;;;;9.75;8.75;;;16.50;87.60;;;;;;5009637;28;20034;-75
2022/08/23 05:15:44;;;;;;;7.63;6.80;;;16.50;87.70;;;;;;5009942;28;20042;-76
2022/08/23 05:18:10;;;;;;;9.02;8.13;;;16.50;87.70;;;;;;5009700;28;20394;-76
2022/08/23 05:20:36;;;;;;;9.65;8.68;;;16.60;88.00;;;;;;5009523;28;20087;-75
2022/08/23 05:23:02;;;;;;;9.75;8.85;;;16.60;88.00;;;;;;5009828;28;20045;-75
2022/08/23 05:25:48;;;;;;;10.70;9.65;;;16.60;88.10;;;;;;4993355;28;20077;-74
2022/08/23 05:28:15;;;;;;;11.27;10.13;;;16.70;88.20;;;;;;5009742;28;20124;-77
2022/08/23 05:30:41;;;;;;;12.98;10.52;;;16.70;88.30;;;;;;5009156;28;20498;-77
2022/08/23 05:33:06;;;;;;;13.93;11.73;;;16.70;88.30;;;;;;4993066;28;20049;-77
2022/08/23 05:35:32;;;;;;;12.35;11.18;;;16.80;88.40;;;;;;5026156;28;20029;-77
2022/08/23 05:37:59;;;;;;;14.73;11.85;;;16.90;88.40;;;;;;5042340;28;20567;-78
2022/08/23 05:40:26;;;;;;;13.60;12.27;;;16.90;88.50;;;;;;4993252;28;20385;-78
2022/08/23 05:42:52;;;;;;;13.20;11.77;;;16.90;88.40;;;;;;5009719;28;20106;-77
2022/08/23 05:45:17;;;;;;;13.15;11.80;;;17.00;88.40;;;;;;5042429;28;20478;-76
2022/08/23 05:47:43;;;;;;;17.50;15.65;;;17.00;88.40;;;;;;5009310;28;20041;-77
2022/08/23 05:50:09;;;;;;;19.65;16.42;;;17.00;88.70;;;;;;5041798;28;20053;-78
2022/08/23 05:52:34;;;;;;;18.98;14.30;;;17.00;89.10;;;;;;5008676;28;20042;-77
2022/08/23 05:55:01;;;;;;;19.23;14.88;;;17.00;89.00;;;;;;5042331;28;20086;-77
2022/08/23 05:57:27;;;;;;;16.35;14.70;;;17.10;89.10;;;;;;4993195;28;20049;-76
2022/08/23 05:59:53;;;;;;;18.63;15.10;;;17.20;88.90;;;;;;5009220;28;20072;-74
2022/08/23 06:02:18;;;;;;;16.13;14.40;;;17.30;88.90;;;;;;5009229;28;20049;-75
2022/08/23 06:04:44;;;;;;;16.35;14.52;;;17.30;88.90;;;;;;5009009;28;20482;-77
2022/08/23 06:07:10;;;;;;;18.98;15.00;;;17.40;88.90;;;;;;5009191;28;20038;-76
2022/08/23 06:09:36;;;;;;;14.98;13.38;;;17.50;88.90;;;;;;5009174;28;20133;-75
2022/08/23 06:12:02;;;;;;;15.43;13.68;;;17.50;89.50;;;;;;5008797;28;20124;-77
2022/08/23 06:14:28;;;;;;;22.13;17.65;;;17.70;89.20;;;;;;5025767;28;20038;-83
2022/08/23 06:16:54;;;;;;;17.90;15.88;;;17.70;89.70;;;;;;5025336;28;20559;-82
2022/08/23 06:19:19;;;;;;;20.83;17.50;;;17.90;88.70;;;;;;5009144;28;20037;-83
2022/08/23 06:21:46;;;;;;;22.90;17.50;;;18.00;88.70;;;;;;5008804;28;20538;-83
2022/08/23 06:24:12;;;;;;;20.65;18.42;;;18.00;89.30;;;;;;4992859;28;20050;-83
2022/08/23 06:26:41;;;;;;;18.33;16.23;;;18.10;89.90;;;;;;5009014;28;20050;-83
2022/08/23 06:29:10;;;;;;;21.63;14.75;;;18.20;89.70;;;;;;4992670;28;20454;-79
2022/08/23 06:31:46;;;;;;;18.30;16.35;;;18.30;89.80;;;;;;5008763;28;20058;-77
2022/08/23 06:34:22;;;;;;;18.27;16.33;;;18.40;89.10;;;;;;4986292;28;20133;-78
2022/08/23 06:36:51;;;;;;;18.15;15.90;;;18.50;88.70;;;;;;5036303;28;20042;-77
2022/08/23 06:39:18;;;;;;;20.15;16.05;;;18.50;88.30;;;;;;5002936;28;20050;-77
2022/08/23 06:41:47;;;;;;;16.55;14.93;;;18.60;88.00;;;;;;5002467;28;20042;-79
2022/08/23 06:44:13;;;;;;;15.52;13.90;;;18.70;87.80;;;;;;4984771;28;20060;-78
2022/08/23 06:46:39;;;;;;;17.88;14.82;;;18.80;87.60;;;;;;4985856;28;20049;-78
2022/08/23 06:49:06;;;;;;;19.30;15.50;;;18.90;87.20;;;;;;5002054;28;20037;-77
2022/08/23 06:51:39;;;;;;;17.13;15.32;;;19.00;87.00;;;;;;5002064;28;20125;-77
2022/08/23 06:54:08;;;;;;;17.08;15.38;;;19.00;86.20;;;;;;4999687;28;20050;-78
2022/08/23 06:56:35;;;;;;;19.10;15.20;;;19.10;85.70;;;;;;4985986;28;20042;-79
2022/08/23 06:59:05;;;;;;;17.33;15.18;;;19.20;85.70;;;;;;5002150;28;20079;-77
2022/08/23 07:01:49;;;;;;;17.00;15.15;;;19.20;85.60;;;;;;5000119;28;20635;-79
2022/08/23 07:04:20;;;;;;;15.55;13.10;;;19.30;85.50;;;;;;4987344;28;20046;-79
2022/08/23 07:06:46;;;;;;;17.33;15.38;;;19.40;85.20;;;;;;4989331;28;20042;-77
2022/08/23 07:09:13;;;;;;;15.35;12.15;;;19.40;84.60;;;;;;5007617;28;20049;-78
2022/08/23 07:11:40;;;;;;;16.58;14.85;;;19.50;84.60;;;;;;4995010;28;20041;-77
2022/08/23 07:14:09;;;;;;;17.42;14.10;;;19.60;84.40;;;;;;5011259;28;20528;-78
2022/08/23 07:16:42;;;;;;;16.48;14.77;;;19.60;84.10;;;;;;5011568;28;20125;-77
2022/08/23 07:19:08;;;;;;;16.13;14.38;;;19.70;84.00;;;;;;4995075;28;20094;-78
2022/08/23 07:21:34;;;;;;;15.48;13.90;;;19.80;83.90;;;;;;4994839;28;20041;-77
2022/08/23 07:24:00;;;;;;;15.55;13.95;;;19.80;83.20;;;;;;4994991;28;20049;-78
2022/08/23 07:26:26;;;;;;;16.33;14.73;;;19.90;83.60;;;;;;5011308;28;20041;-77
2022/08/23 07:28:52;;;;;;;14.40;13.07;;;20.00;83.50;;;;;;5027982;28;20034;-78
2022/08/23 07:31:30;;;;;;;15.43;12.10;;;20.00;83.00;;;;;;5010938;28;20057;-79
2022/08/23 07:33:58;;;;;;;19.05;15.13;;;20.10;82.70;;;;;;4994638;28;20048;-78
2022/08/23 07:36:25;;;;;;;14.68;11.85;;;20.20;82.70;;;;;;5010471;28;20564;-78
2022/08/23 07:38:52;;;;;;;14.23;12.50;;;20.40;82.60;;;;;;4994807;28;20034;-79
2022/08/23 07:41:18;;;;;;;14.77;11.80;;;20.40;81.40;;;;;;5011043;28;20042;-78
2022/08/23 07:43:44;;;;;;;14.95;13.25;;;20.50;81.20;;;;;;4994905;28;20037;-79
2022/08/23 07:46:10;;;;;;;14.55;12.25;;;20.60;81.00;;;;;;5011067;28;20045;-78
2022/08/23 07:48:37;;;;;;;15.27;12.32;;;20.70;80.70;;;;;;5010315;28;20046;-78
2022/08/23 07:51:06;;;;;;;17.08;11.77;;;20.80;79.60;;;;;;5010501;28;20494;-79
2022/08/23 07:53:32;;;;;;;11.98;10.82;;;21.00;80.40;;;;;;5015626;28;20092;-79
2022/08/23 07:56:02;;;;;;;15.70;12.07;;;21.00;79.00;;;;;;4959225;28;20042;-79
2022/08/23 07:58:28;;;;;;;13.65;11.35;;;21.20;77.90;;;;;;4991497;28;20034;-77
2022/08/23 08:00:53;;;;;;;12.32;11.13;;;21.20;77.20;;;;;;4991075;28;20402;-77
2022/08/23 08:03:20;;;;;;;15.05;10.95;;;21.40;78.00;;;;;;4975090;28;20042;-76
2022/08/23 08:05:46;;;;;;;13.90;11.13;;;21.50;77.40;;;;;;4974385;28;20103;-75
2022/08/23 08:08:12;;;;;;;15.15;11.23;;;21.60;77.40;;;;;;4990577;28;20047;-77
2022/08/23 08:10:40;;;;;;;12.20;10.82;;;21.70;77.00;;;;;;4990987;28;20129;-76
2022/08/23 08:13:07;;;;;;;13.48;11.65;;;21.90;77.00;;;;;;5007324;28;20058;-77
2022/08/23 08:15:33;;;;;;;13.30;11.30;;;22.00;76.80;;;;;;4990544;28;20042;-76
2022/08/23 08:17:59;;;;;;;14.18;12.25;;;22.00;75.60;;;;;;4974752;28;20490;-77
2022/08/23 08:20:27;;;;;;;14.02;11.23;;;22.10;76.20;;;;;;4991070;28;20104;-75
2022/08/23 08:22:53;;;;;;;14.73;11.07;;;22.30;76.30;;;;;;4974779;28;20103;-76
2022/08/23 08:25:18;;;;;;;14.68;9.45;;;22.40;76.10;;;;;;4990869;28;20125;-77
2022/08/23 08:27:44;;;;;;;10.70;9.68;;;22.50;74.80;;;;;;5059463;28;20129;-76
2022/08/23 08:30:11;;;;;;;12.27;9.68;;;22.60;74.30;;;;;;5006972;28;20555;-77
2022/08/23 08:32:37;;;;;;;11.05;9.43;;;22.70;73.50;;;;;;5007228;28;20046;-76
2022/08/23 08:35:03;;;;;;;12.77;8.90;;;22.90;73.70;;;;;;5023450;28;20402;-78
2022/08/23 08:37:30;;;;;;;13.60;10.05;;;23.20;73.90;;;;;;5023376;28;20054;-75
2022/08/23 08:39:56;;;;;;;12.45;10.45;;;23.40;73.10;;;;;;4990918;28;20089;-77
2022/08/23 08:42:31;;;;;;;11.93;10.82;;;23.60;72.50;;;;;;4990652;28;20057;-76
2022/08/23 08:45:06;;;;;;;13.50;10.27;;;23.80;72.40;;;;;;4974320;28;20051;-77
2022/08/23 08:47:46;;;;;;;12.70;10.57;;;23.90;72.10;;;;;;4990502;28;20041;-77
2022/08/23 08:50:31;;;;;;;11.77;9.90;;;23.90;70.90;;;;;;4990410;28;20053;-76
2022/08/23 08:53:02;;;;;;;12.20;10.80;;;23.90;71.40;;;;;;5023152;28;20085;-77
2022/08/23 08:55:32;;;;;;;14.50;10.45;;;23.90;71.30;;;;;;4990665;28;20038;-77
2022/08/23 08:58:00;;;;;;;10.90;9.80;;;23.90;70.60;;;;;;4990344;28;20077;-77
2022/08/23 09:00:31;;;;;;;10.77;9.02;;;23.80;69.10;;;;;;5022970;28;20121;-77
2022/08/23 09:02:58;;;;;;;11.77;8.65;;;23.80;69.60;;;;;;5023372;28;20104;-78
2022/08/23 09:05:30;;;;;;;10.18;8.10;;;23.90;69.10;;;;;;5023237;28;20046;-75
2022/08/23 09:08:08;;;;;;;12.70;9.40;;;23.90;68.90;;;;;;5006563;28;20153;-75
2022/08/23 09:10:46;;;;;;;11.52;8.35;;;24.00;69.40;;;;;;5023077;28;20050;-76
2022/08/23 09:13:33;;;;;;;13.23;8.75;;;24.20;69.30;;;;;;5006414;28;20053;-76
2022/08/23 09:16:45;;;;;;;9.60;8.65;;;24.30;68.00;;;;;;5022803;28;20087;-76
2022/08/23 09:19:10;;;;;;;11.25;9.10;;;24.50;67.70;;;;;;5023666;28;20097;-78
2022/08/23 09:22:13;;;;;;;10.93;8.40;;;24.70;65.90;;;;;;5023048;28;20478;-79
2022/08/23 09:24:39;;;;;;;11.65;9.82;;;24.80;66.40;;;;;;5021464;28;20056;-77
2022/08/23 09:27:08;;;;;;;13.18;10.90;;;24.90;66.50;;;;;;5021969;28;20049;-79
2022/08/23 09:29:36;;;;;;;11.02;9.45;;;25.00;66.20;;;;;;4989672;28;20062;-76
2022/08/23 09:32:23;;;;;;;12.32;9.80;;;25.10;66.30;;;;;;5022705;28;20050;-76
2022/08/23 09:34:49;;;;;;;13.90;12.30;;;25.20;66.30;;;;;;5022588;28;20045;-77
2022/08/23 09:37:22;;;;;;;13.68;10.07;;;25.30;65.40;;;;;;4989831;28;20046;-76
2022/08/23 09:40:19;;;;;;;14.65;10.30;;;25.30;64.80;;;;;;4989712;28;20083;-78
2022/08/23 09:43:00;;;;;;;12.07;9.60;;;25.40;64.60;;;;;;4989788;28;20487;-76
2022/08/23 09:45:36;;;;;;;11.35;8.68;;;25.40;64.90;;;;;;5006054;28;20125;-76
2022/08/23 09:48:04;;;;;;;12.45;10.02;;;25.50;64.70;;;;;;5005978;28;20096;-75
2022/08/23 09:50:42;;;;;;;13.95;10.65;;;25.60;64.80;;;;;;4989505;28;20046;-78
2022/08/23 09:53:09;;;;;;;13.13;9.52;;;25.60;62.10;;;;;;4989599;28;20372;-77
2022/08/23 09:55:49;;;;;;;13.02;10.35;;;25.70;63.50;;;;;;5022305;28;20047;-76
2022/08/23 09:58:36;;;;;;;11.52;10.02;;;25.70;61.00;;;;;;4989543;28;20070;-77
2022/08/23 10:01:21;;;;;;;12.20;8.35;;;25.60;61.40;;;;;;4989476;28;20046;-78
2022/08/23 10:04:15;;;;;;;10.27;8.00;;;25.80;61.80;;;;;;5022483;28;20038;-78
2022/08/23 10:06:44;;;;;;;;;;;25.90;59.70;;;;;;5022882;28;20046;-78
2022/08/23 10:09:27;;;;;;;10.55;8.90;;;26.00;61.10;;;;;;4989357;28;19925;-77
2022/08/23 10:11:55;;;;;;;11.68;8.07;;;26.10;60.10;;;;;;5021905;28;20525;-78
2022/08/23 10:14:23;;;;;;;10.75;8.23;;;26.20;59.10;;;;;;5021902;28;20042;-77
2022/08/23 10:17:23;;;;;;;14.27;9.70;;;26.30;59.00;;;;;;5021929;28;20058;-78
2022/08/23 10:20:11;;;;;;;13.45;10.15;;;26.40;59.70;;;;;;5021891;28;20049;-77
2022/08/23 10:23:03;;;;;;;9.98;8.70;;;26.60;59.60;;;;;;4989515;28;20462;-78
2022/08/23 10:25:41;;;;;;;11.50;8.60;;;26.70;59.10;;;;;;5022123;28;20042;-79
2022/08/23 10:31:32;;;;;;;15.63;10.55;;;26.90;57.40;;;;;;4989031;28;20069;-78
2022/08/23 10:34:40;;;;;;;12.25;8.82;;;26.90;57.00;;;;;;4989057;28;20047;-78
2022/08/23 10:37:28;;;;;;;11.32;8.70;;;27.00;57.20;;;;;;5022930;28;20125;-79
2022/08/23 10:40:07;;;;;;;13.45;9.05;;;27.20;58.50;;;;;;5008865;28;20091;-79
2022/08/23 10:43:07;;;;;;;13.82;9.63;;;27.40;57.30;;;;;;5008972;28;20055;-79
2022/08/23 10:45:38;;;;;;;15.40;9.60;;;27.40;53.90;;;;;;5025518;28;20047;-78
2022/08/23 10:48:25;;;;;;;11.93;8.52;;;27.50;55.20;;;;;;5025444;28;20592;-78
2022/08/23 10:50:56;;;;;;;11.85;9.45;;;27.70;56.00;;;;;;5025093;28;20103;-77
2022/08/23 10:53:36;;;;;;;10.30;8.43;;;27.90;55.80;;;;;;5008616;28;20049;-78
2022/08/23 10:56:03;;;;;;;11.82;7.57;;;28.00;53.90;;;;;;5025156;28;20042;-79
2022/08/23 10:58:40;;;;;;;10.02;7.97;;;28.00;52.90;;;;;;5024952;28;20383;-79
2022/08/23 11:01:08;;;;;;;12.88;7.07;;;28.10;52.20;;;;;;5024802;28;20557;-77
2022/08/23 11:03:51;;;;;;;11.68;9.05;;;28.20;52.00;;;;;;5008458;28;20050;-79
2022/08/23 11:06:39;;;;;;;10.85;7.30;;;28.10;50.70;;;;;;5024991;28;20043;-79
2022/08/23 11:09:20;;;;;;;10.73;7.05;;;28.20;51.20;;;;;;5008394;28;20042;-79
2022/08/23 11:12:19;;;;;;;8.93;7.18;;;28.30;50.90;;;;;;5008178;28;20042;-78
2022/08/23 11:14:56;;;;;;;8.15;7.35;;;28.40;51.10;;;;;;5008276;28;20051;-79
2022/08/23 11:17:28;;;;;;;11.10;7.55;;;28.50;50.40;;;;;;5008341;28;20049;-79
2022/08/23 11:19:58;;;;;;;10.43;8.50;;;28.60;49.40;;;;;;5024526;28;20046;-79
2022/08/23 11:22:30;;;;;;;10.30;8.65;;;28.60;48.70;;;;;;5024449;28;20180;-77
2022/08/23 11:25:16;;;;;;;8.75;7.85;;;28.50;49.60;;;;;;5024614;28;20553;-78
2022/08/23 11:27:43;;;;;;;14.80;8.05;;;28.50;47.30;;;;;;5006656;28;20043;-79
2022/08/23 11:30:33;;;;;;;11.73;8.02;;;28.40;49.70;;;;;;5007844;28;20066;-80
2022/08/23 11:33:15;;;;;;;12.15;8.60;;;28.70;49.80;;;;;;5024487;28;20050;-78
2022/08/23 11:35:51;;;;;;;14.82;10.18;;;28.80;50.00;;;;;;5024489;28;20043;-78
2022/08/23 11:38:46;;;;;;;12.93;11.20;;;28.60;49.90;;;;;;4991591;28;20042;-78
2022/08/23 11:41:18;;;;;;;11.73;8.63;;;28.60;50.40;;;;;;4991386;28;20034;-78
2022/08/23 11:44:09;;;;;;;12.93;8.70;;;28.60;50.40;;;;;;5007942;28;20046;-78
2022/08/23 11:46:54;;;;;;;14.48;11.05;;;28.50;50.60;;;;;;4998133;28;20069;-78
2022/08/23 11:49:29;;;;;;;13.88;9.73;;;28.30;50.80;;;;;;4990472;28;20125;-80
2022/08/23 11:52:21;;;;;;;13.65;12.25;;;28.60;51.50;;;;;;5024054;28;20406;-76
2022/08/23 11:55:16;;;;;;;13.95;10.32;;;28.60;50.70;;;;;;5010474;28;20564;-80
2022/08/23 11:58:32;;;;;;;13.30;8.93;;;28.80;50.30;;;;;;4991663;28;20148;-80
2022/08/23 12:01:08;;;;;;;10.82;8.60;;;28.90;50.20;;;;;;5014194;28;20047;-79
2022/08/23 12:03:49;;;;;;;12.50;8.25;;;29.00;49.50;;;;;;5024074;28;20050;-78
2022/08/23 12:06:18;;;;;;;13.15;8.90;;;29.20;48.50;;;;;;5007558;28;20096;-78
2022/08/23 12:08:47;;;;;;;13.98;8.25;;;29.40;48.30;;;;;;5023928;28;20043;-79
2022/08/23 12:11:16;;;;;;;11.98;9.88;;;29.60;49.60;;;;;;5023852;28;20064;-79
2022/08/23 12:13:56;;;;;;;13.38;9.57;;;29.70;47.90;;;;;;4991112;28;20046;-79
2022/08/23 12:16:22;;;;;;;13.50;8.57;;;29.90;48.00;;;;;;5007309;28;20034;-79
2022/08/23 12:18:48;;;;;;;14.23;7.63;;;29.90;48.40;;;;;;5007294;28;20043;-79
2022/08/23 12:21:26;;;;;;;14.80;9.02;;;30.00;48.70;;;;;;5007275;28;20099;-79
2022/08/23 12:23:56;;;;;;;9.82;7.75;;;30.00;47.00;;;;;;5023775;28;20129;-79
2022/08/23 12:26:25;;;;;;;16.30;9.70;;;29.60;46.70;;;;;;5023641;28;20034;-79
2022/08/23 12:29:03;;;;;;;12.75;8.73;;;29.70;47.20;;;;;;5023700;28;20490;-79
2022/08/23 12:31:51;;;;;;;12.10;7.15;;;29.70;47.30;;;;;;5023344;28;20055;-78
2022/08/23 12:34:41;;;;;;;10.32;8.45;;;29.80;46.10;;;;;;5023931;28;20452;-79
2022/08/23 12:37:25;;;;;;;12.27;6.88;;;29.90;45.40;;;;;;5023478;28;20054;-79
2022/08/23 12:39:55;;;;;;;13.57;7.30;;;30.00;46.00;;;;;;5023545;28;20043;-79
2022/08/23 12:42:32;;;;;;;9.43;7.80;;;29.90;45.90;;;;;;5023322;28;20038;-78
2022/08/23 12:45:24;;;;;;;13.15;8.00;;;30.00;45.30;;;;;;5023464;28;20042;-79
2022/08/23 12:48:00;;;;;;;13.05;6.88;;;30.00;46.50;;;;;;4976537;28;20176;-79
2022/08/23 12:50:33;;;;;;;13.25;6.80;;;30.20;47.00;;;;;;5006654;28;20068;-79
2022/08/23 12:53:03;;;;;;;9.07;6.25;;;30.20;44.80;;;;;;5006931;28;20042;-79
2022/08/23 12:55:32;;;;;;;14.35;7.13;;;30.20;45.30;;;;;;5023202;28;20053;-79
2022/08/23 12:57:59;;;;;;;11.52;6.47;;;29.80;45.60;;;;;;5023122;28;20042;-79
2022/08/23 13:00:34;;;;;;;8.95;5.50;;;29.90;45.20;;;;;;5023078;28;20126;-79
2022/08/23 13:03:25;;;;;;;8.88;5.43;;;30.00;44.80;;;;;;5006705;28;20048;-79
2022/08/23 13:05:57;;;;;;;9.02;4.47;;;29.90;45.20;;;;;;4997072;28;20065;-78